<?xml version='1.0' encoding='UTF-8'?><gpx version="1.1" creator="JPX - https://github.com/jenetics/jpx" xmlns="http://www.topografix.com/GPX/1/1"><trk><trkseg><trkpt lat="43.812582" lon="10.4105467"><ele>10.0</ele><time>2026-04-28T16:08:29.689Z</time></trkpt><trkpt lat="43.8125283" lon="10.4104921"><ele>10.0</ele><time>2026-04-28T16:08:45.689Z</time></trkpt><trkpt lat="43.8124671" lon="10.4104585"><ele>10.0</ele><time>2026-04-28T16:08:52.69Z</time></trkpt><trkpt lat="43.8124034" lon="10.4104217"><ele>10.0</ele><time>2026-04-28T16:08:57.688Z</time></trkpt><trkpt lat="43.8123454" lon="10.4103829"><ele>10.0</ele><time>2026-04-28T16:09:03.688Z</time></trkpt><trkpt lat="43.8122883" lon="10.4103395"><ele>10.0</ele><time>2026-04-28T16:09:10.69Z</time></trkpt><trkpt lat="43.8122442" lon="10.4102754"><ele>10.0</ele><time>2026-04-28T16:09:19.69Z</time></trkpt><trkpt lat="43.8121643" lon="10.4102598"><ele>9.857142857142858</ele><time>2026-04-28T16:09:39.689Z</time></trkpt><trkpt lat="43.8121086" lon="10.410204"><ele>9.714285714285715</ele><time>2026-04-28T16:09:49.69Z</time></trkpt><trkpt lat="43.8120457" lon="10.4101576"><ele>9.571428571428573</ele><time>2026-04-28T16:09:59.693Z</time></trkpt><trkpt lat="43.8119915" lon="10.4101114"><ele>9.428571428571429</ele><time>2026-04-28T16:10:15.688Z</time></trkpt><trkpt lat="43.8119284" lon="10.4100692"><ele>9.285714285714286</ele><time>2026-04-28T16:10:24.689Z</time></trkpt><trkpt lat="43.8118649" lon="10.4100263"><ele>9.142857142857144</ele><time>2026-04-28T16:10:31.691Z</time></trkpt><trkpt lat="43.811807" lon="10.4099905"><ele>9.0</ele><time>2026-04-28T16:10:39.691Z</time></trkpt><trkpt lat="43.8117461" lon="10.4099344"><ele>9.000000000000002</ele><time>2026-04-28T16:10:49.689Z</time></trkpt><trkpt lat="43.8116876" lon="10.409892"><ele>9.0</ele><time>2026-04-28T16:10:56.69Z</time></trkpt><trkpt lat="43.81163" lon="10.4098482"><ele>9.0</ele><time>2026-04-28T16:11:05.689Z</time></trkpt><trkpt lat="43.811544" lon="10.4097963"><ele>9.0</ele><time>2026-04-28T16:11:31.689Z</time></trkpt><trkpt lat="43.8114806" lon="10.4097621"><ele>9.0</ele><time>2026-04-28T16:11:42.689Z</time></trkpt><trkpt lat="43.8114228" lon="10.4097178"><ele>9.000000000000002</ele><time>2026-04-28T16:11:50.69Z</time></trkpt><trkpt lat="43.8113647" lon="10.4096762"><ele>9.0</ele><time>2026-04-28T16:11:59.69Z</time></trkpt><trkpt lat="43.8113099" lon="10.4096237"><ele>8.714285714285715</ele><time>2026-04-28T16:12:06.691Z</time></trkpt><trkpt lat="43.811249" lon="10.4095776"><ele>8.428571428571429</ele><time>2026-04-28T16:12:19.69Z</time></trkpt><trkpt lat="43.8111916" lon="10.4095365"><ele>8.142857142857142</ele><time>2026-04-28T16:12:31.695Z</time></trkpt><trkpt lat="43.811129" lon="10.4094944"><ele>7.857142857142858</ele><time>2026-04-28T16:12:46.688Z</time></trkpt><trkpt lat="43.8110707" lon="10.4094401"><ele>7.571428571428571</ele><time>2026-04-28T16:12:56.689Z</time></trkpt><trkpt lat="43.8110092" lon="10.4094097"><ele>7.285714285714286</ele><time>2026-04-28T16:13:05.69Z</time></trkpt><trkpt lat="43.8110003" lon="10.4095093"><ele>7.0</ele><time>2026-04-28T16:13:26.69Z</time></trkpt><trkpt lat="43.8109373" lon="10.4094846"><ele>7.000000000000001</ele><time>2026-04-28T16:13:41.688Z</time></trkpt><trkpt lat="43.8108834" lon="10.4094182"><ele>7.0</ele><time>2026-04-28T16:13:47.689Z</time></trkpt><trkpt lat="43.8108213" lon="10.4093718"><ele>7.0</ele><time>2026-04-28T16:13:53.689Z</time></trkpt><trkpt lat="43.8107701" lon="10.4093061"><ele>7.0</ele><time>2026-04-28T16:14:00.688Z</time></trkpt><trkpt lat="43.8107191" lon="10.4092497"><ele>7.000000000000001</ele><time>2026-04-28T16:14:04.689Z</time></trkpt><trkpt lat="43.8106853" lon="10.4091638"><ele>7.0</ele><time>2026-04-28T16:14:08.69Z</time></trkpt><trkpt lat="43.8098762" lon="10.408846"><ele>7.666666666666667</ele><time>2026-04-28T16:16:30.689Z</time></trkpt><trkpt lat="43.8098772" lon="10.4087511"><ele>8.333333333333334</ele><time>2026-04-28T16:16:37.69Z</time></trkpt><trkpt lat="43.8099234" lon="10.4086689"><ele>9.0</ele><time>2026-04-28T16:16:45.69Z</time></trkpt><trkpt lat="43.809544" lon="10.4083662"><ele>9.000000000000002</ele><time>2026-04-28T16:17:06.7Z</time></trkpt><trkpt lat="43.8096072" lon="10.4084345"><ele>9.0</ele><time>2026-04-28T16:17:09.689Z</time></trkpt><trkpt lat="43.8096282" lon="10.4085226"><ele>9.0</ele><time>2026-04-28T16:17:13.692Z</time></trkpt><trkpt lat="43.8095611" lon="10.4085196"><ele>9.0</ele><time>2026-04-28T16:17:28.688Z</time></trkpt><trkpt lat="43.8095048" lon="10.4084695"><ele>9.0</ele><time>2026-04-28T16:17:33.689Z</time></trkpt><trkpt lat="43.8094413" lon="10.4084319"><ele>9.000000000000002</ele><time>2026-04-28T16:17:39.689Z</time></trkpt><trkpt lat="43.8093775" lon="10.4083981"><ele>9.0</ele><time>2026-04-28T16:17:47.689Z</time></trkpt><trkpt lat="43.8093342" lon="10.4084654"><ele>9.000000000000002</ele><time>2026-04-28T16:17:55.689Z</time></trkpt><trkpt lat="43.8092792" lon="10.4083774"><ele>9.0</ele><time>2026-04-28T16:18:01.69Z</time></trkpt><trkpt lat="43.8092301" lon="10.4083201"><ele>9.0</ele><time>2026-04-28T16:18:08.69Z</time></trkpt><trkpt lat="43.8092392" lon="10.40823"><ele>9.0</ele><time>2026-04-28T16:18:14.689Z</time></trkpt><trkpt lat="43.8092864" lon="10.4081667"><ele>9.0</ele><time>2026-04-28T16:18:19.69Z</time></trkpt><trkpt lat="43.8093357" lon="10.4080928"><ele>9.000000000000002</ele><time>2026-04-28T16:18:23.689Z</time></trkpt><trkpt lat="43.8093021" lon="10.4080138"><ele>9.0</ele><time>2026-04-28T16:18:34.688Z</time></trkpt><trkpt lat="43.8088657" lon="10.4079234"><ele>9.000000000000002</ele><time>2026-04-28T16:19:27.689Z</time></trkpt><trkpt lat="43.8088127" lon="10.4078678"><ele>9.0</ele><time>2026-04-28T16:19:52.691Z</time></trkpt><trkpt lat="43.808755" lon="10.4078141"><ele>9.0</ele><time>2026-04-28T16:20:00.69Z</time></trkpt><trkpt lat="43.8086981" lon="10.4077675"><ele>9.0</ele><time>2026-04-28T16:20:06.689Z</time></trkpt><trkpt lat="43.8086396" lon="10.4077318"><ele>9.0</ele><time>2026-04-28T16:20:16.689Z</time></trkpt><trkpt lat="43.808596" lon="10.4076642"><ele>9.000000000000002</ele><time>2026-04-28T16:20:24.689Z</time></trkpt><trkpt lat="43.8085373" lon="10.4076213"><ele>9.0</ele><time>2026-04-28T16:20:37.692Z</time></trkpt><trkpt lat="43.8084776" lon="10.4075779"><ele>8.857142857142858</ele><time>2026-04-28T16:20:44.692Z</time></trkpt><trkpt lat="43.8084236" lon="10.4075206"><ele>8.714285714285715</ele><time>2026-04-28T16:21:03.688Z</time></trkpt><trkpt lat="43.8083656" lon="10.4074854"><ele>8.571428571428571</ele><time>2026-04-28T16:21:08.692Z</time></trkpt><trkpt lat="43.8083181" lon="10.4074281"><ele>8.428571428571429</ele><time>2026-04-28T16:21:14.691Z</time></trkpt><trkpt lat="43.8082674" lon="10.4073761"><ele>8.285714285714285</ele><time>2026-04-28T16:21:21.691Z</time></trkpt><trkpt lat="43.8082177" lon="10.4073216"><ele>8.142857142857142</ele><time>2026-04-28T16:21:27.687Z</time></trkpt><trkpt lat="43.8081568" lon="10.4072659"><ele>8.0</ele><time>2026-04-28T16:21:35.688Z</time></trkpt><trkpt lat="43.808105" lon="10.4072014"><ele>8.0</ele><time>2026-04-28T16:21:42.689Z</time></trkpt><trkpt lat="43.808061" lon="10.4071352"><ele>7.999999999999999</ele><time>2026-04-28T16:21:52.689Z</time></trkpt><trkpt lat="43.8080123" lon="10.4070783"><ele>8.0</ele><time>2026-04-28T16:21:59.69Z</time></trkpt><trkpt lat="43.8079577" lon="10.4070185"><ele>8.0</ele><time>2026-04-28T16:22:07.688Z</time></trkpt><trkpt lat="43.8079172" lon="10.4069479"><ele>7.999999999999999</ele><time>2026-04-28T16:22:17.689Z</time></trkpt><trkpt lat="43.8078677" lon="10.4068779"><ele>8.0</ele><time>2026-04-28T16:22:25.689Z</time></trkpt><trkpt lat="43.807793" lon="10.4067954"><ele>8.0</ele><time>2026-04-28T16:22:47.689Z</time></trkpt><trkpt lat="43.8077448" lon="10.4067268"><ele>8.0</ele><time>2026-04-28T16:22:56.69Z</time></trkpt><trkpt lat="43.8076926" lon="10.4066638"><ele>7.999999999999999</ele><time>2026-04-28T16:23:03.691Z</time></trkpt><trkpt lat="43.8076394" lon="10.406602"><ele>8.0</ele><time>2026-04-28T16:23:10.687Z</time></trkpt><trkpt lat="43.8075945" lon="10.4065379"><ele>8.0</ele><time>2026-04-28T16:23:17.689Z</time></trkpt><trkpt lat="43.8075434" lon="10.4064844"><ele>7.999999999999999</ele><time>2026-04-28T16:23:25.692Z</time></trkpt><trkpt lat="43.807495" lon="10.4063979"><ele>8.0</ele><time>2026-04-28T16:23:45.689Z</time></trkpt><trkpt lat="43.8074499" lon="10.4063284"><ele>8.0</ele><time>2026-04-28T16:23:54.69Z</time></trkpt><trkpt lat="43.8074137" lon="10.4062497"><ele>7.857142857142857</ele><time>2026-04-28T16:24:08.691Z</time></trkpt><trkpt lat="43.807377" lon="10.4061777"><ele>7.7142857142857135</ele><time>2026-04-28T16:24:17.69Z</time></trkpt><trkpt lat="43.807325" lon="10.4061266"><ele>7.571428571428571</ele><time>2026-04-28T16:24:25.688Z</time></trkpt><trkpt lat="43.8072766" lon="10.4060652"><ele>7.428571428571429</ele><time>2026-04-28T16:24:34.689Z</time></trkpt><trkpt lat="43.8072332" lon="10.406"><ele>7.285714285714286</ele><time>2026-04-28T16:24:44.69Z</time></trkpt><trkpt lat="43.8071905" lon="10.4059306"><ele>7.142857142857142</ele><time>2026-04-28T16:24:56.691Z</time></trkpt><trkpt lat="43.8071498" lon="10.4058607"><ele>7.0</ele><time>2026-04-28T16:25:05.688Z</time></trkpt><trkpt lat="43.8071028" lon="10.4057943"><ele>7.0</ele><time>2026-04-28T16:25:13.689Z</time></trkpt><trkpt lat="43.8070668" lon="10.4057134"><ele>7.0</ele><time>2026-04-28T16:25:22.688Z</time></trkpt><trkpt lat="43.80703" lon="10.4056398"><ele>7.0</ele><time>2026-04-28T16:25:30.692Z</time></trkpt><trkpt lat="43.807009" lon="10.4055555"><ele>7.0</ele><time>2026-04-28T16:25:42.688Z</time></trkpt><trkpt lat="43.8069585" lon="10.4054799"><ele>7.0</ele><time>2026-04-28T16:25:49.69Z</time></trkpt><trkpt lat="43.8069109" lon="10.4054046"><ele>7.0</ele><time>2026-04-28T16:25:58.69Z</time></trkpt><trkpt lat="43.8068753" lon="10.4053317"><ele>7.0</ele><time>2026-04-28T16:26:05.692Z</time></trkpt><trkpt lat="43.8068249" lon="10.4052651"><ele>7.428571428571429</ele><time>2026-04-28T16:26:15.692Z</time></trkpt><trkpt lat="43.8067821" lon="10.4051919"><ele>7.857142857142858</ele><time>2026-04-28T16:26:25.691Z</time></trkpt><trkpt lat="43.8067333" lon="10.4051192"><ele>8.285714285714285</ele><time>2026-04-28T16:26:33.689Z</time></trkpt><trkpt lat="43.8066773" lon="10.4050696"><ele>8.714285714285715</ele><time>2026-04-28T16:26:40.689Z</time></trkpt><trkpt lat="43.8066487" lon="10.4049799"><ele>9.142857142857142</ele><time>2026-04-28T16:26:49.689Z</time></trkpt><trkpt lat="43.8066013" lon="10.4049152"><ele>9.571428571428571</ele><time>2026-04-28T16:26:59.689Z</time></trkpt><trkpt lat="43.806591" lon="10.4048197"><ele>10.0</ele><time>2026-04-28T16:27:07.692Z</time></trkpt><trkpt lat="43.8065554" lon="10.4047438"><ele>9.857142857142858</ele><time>2026-04-28T16:27:14.69Z</time></trkpt><trkpt lat="43.8065161" lon="10.4046595"><ele>9.714285714285715</ele><time>2026-04-28T16:27:22.691Z</time></trkpt><trkpt lat="43.8064565" lon="10.4046054"><ele>9.571428571428573</ele><time>2026-04-28T16:27:29.692Z</time></trkpt><trkpt lat="43.8064229" lon="10.4045312"><ele>9.428571428571429</ele><time>2026-04-28T16:27:36.692Z</time></trkpt><trkpt lat="43.8063789" lon="10.4044599"><ele>9.285714285714286</ele><time>2026-04-28T16:27:43.688Z</time></trkpt><trkpt lat="43.8063405" lon="10.4043756"><ele>9.142857142857144</ele><time>2026-04-28T16:27:53.689Z</time></trkpt><trkpt lat="43.8063091" lon="10.4042881"><ele>9.0</ele><time>2026-04-28T16:28:00.691Z</time></trkpt><trkpt lat="43.8062572" lon="10.4042257"><ele>9.000000000000002</ele><time>2026-04-28T16:28:08.689Z</time></trkpt><trkpt lat="43.80621" lon="10.4041601"><ele>9.0</ele><time>2026-04-28T16:28:17.689Z</time></trkpt><trkpt lat="43.8061607" lon="10.4040859"><ele>9.0</ele><time>2026-04-28T16:28:27.688Z</time></trkpt><trkpt lat="43.8061129" lon="10.4040263"><ele>9.0</ele><time>2026-04-28T16:28:35.691Z</time></trkpt><trkpt lat="43.8060645" lon="10.4039363"><ele>9.0</ele><time>2026-04-28T16:28:51.689Z</time></trkpt><trkpt lat="43.8060324" lon="10.4038594"><ele>9.000000000000002</ele><time>2026-04-28T16:28:59.691Z</time></trkpt><trkpt lat="43.8059885" lon="10.4037911"><ele>9.0</ele><time>2026-04-28T16:29:08.692Z</time></trkpt><trkpt lat="43.8059564" lon="10.4037155"><ele>9.142857142857144</ele><time>2026-04-28T16:29:15.688Z</time></trkpt><trkpt lat="43.8059254" lon="10.4036373"><ele>9.285714285714286</ele><time>2026-04-28T16:29:23.688Z</time></trkpt><trkpt lat="43.8058684" lon="10.40359"><ele>9.428571428571429</ele><time>2026-04-28T16:29:31.689Z</time></trkpt><trkpt lat="43.8058347" lon="10.4035108"><ele>9.571428571428573</ele><time>2026-04-28T16:29:40.692Z</time></trkpt><trkpt lat="43.8057985" lon="10.4034317"><ele>9.714285714285715</ele><time>2026-04-28T16:29:47.69Z</time></trkpt><trkpt lat="43.80577" lon="10.4033508"><ele>9.857142857142858</ele><time>2026-04-28T16:29:54.691Z</time></trkpt><trkpt lat="43.8057258" lon="10.4032852"><ele>10.0</ele><time>2026-04-28T16:30:02.69Z</time></trkpt><trkpt lat="43.8056786" lon="10.4032219"><ele>10.0</ele><time>2026-04-28T16:30:08.689Z</time></trkpt><trkpt lat="43.8056342" lon="10.4031528"><ele>10.0</ele><time>2026-04-28T16:30:17.69Z</time></trkpt><trkpt lat="43.8055869" lon="10.4030888"><ele>10.0</ele><time>2026-04-28T16:30:26.697Z</time></trkpt><trkpt lat="43.8055579" lon="10.4030052"><ele>10.0</ele><time>2026-04-28T16:30:34.69Z</time></trkpt><trkpt lat="43.8055159" lon="10.402925"><ele>10.0</ele><time>2026-04-28T16:30:41.691Z</time></trkpt><trkpt lat="43.8054676" lon="10.4028574"><ele>10.0</ele><time>2026-04-28T16:30:49.689Z</time></trkpt><trkpt lat="43.8054303" lon="10.4027838"><ele>10.0</ele><time>2026-04-28T16:30:58.69Z</time></trkpt><trkpt lat="43.8053931" lon="10.4027002"><ele>9.857142857142858</ele><time>2026-04-28T16:31:05.691Z</time></trkpt><trkpt lat="43.8053457" lon="10.4026405"><ele>9.714285714285715</ele><time>2026-04-28T16:31:11.69Z</time></trkpt><trkpt lat="43.8053023" lon="10.4025659"><ele>9.571428571428573</ele><time>2026-04-28T16:31:19.69Z</time></trkpt><trkpt lat="43.805263" lon="10.4024944"><ele>9.428571428571429</ele><time>2026-04-28T16:31:27.689Z</time></trkpt><trkpt lat="43.8052186" lon="10.4024258"><ele>9.285714285714286</ele><time>2026-04-28T16:31:35.692Z</time></trkpt><trkpt lat="43.805187" lon="10.4023396"><ele>9.142857142857144</ele><time>2026-04-28T16:31:45.692Z</time></trkpt><trkpt lat="43.8051349" lon="10.4022877"><ele>9.0</ele><time>2026-04-28T16:31:51.689Z</time></trkpt><trkpt lat="43.8050887" lon="10.4022138"><ele>8.857142857142858</ele><time>2026-04-28T16:31:57.692Z</time></trkpt><trkpt lat="43.8050393" lon="10.4021389"><ele>8.714285714285715</ele><time>2026-04-28T16:32:04.693Z</time></trkpt><trkpt lat="43.8050953" lon="10.4020944"><ele>8.571428571428571</ele><time>2026-04-28T16:32:18.689Z</time></trkpt><trkpt lat="43.8051633" lon="10.4020798"><ele>8.428571428571429</ele><time>2026-04-28T16:32:28.692Z</time></trkpt><trkpt lat="43.8052283" lon="10.4020501"><ele>8.285714285714285</ele><time>2026-04-28T16:32:37.689Z</time></trkpt><trkpt lat="43.8052889" lon="10.4021023"><ele>8.142857142857142</ele><time>2026-04-28T16:32:43.689Z</time></trkpt><trkpt lat="43.8053319" lon="10.4021867"><ele>8.0</ele><time>2026-04-28T16:32:49.688Z</time></trkpt><trkpt lat="43.8053684" lon="10.4022718"><ele>8.0</ele><time>2026-04-28T16:32:56.69Z</time></trkpt><trkpt lat="43.8054335" lon="10.4022655"><ele>7.999999999999999</ele><time>2026-04-28T16:33:04.691Z</time></trkpt><trkpt lat="43.8054921" lon="10.4022173"><ele>8.0</ele><time>2026-04-28T16:33:21.689Z</time></trkpt><trkpt lat="43.8055518" lon="10.4021894"><ele>8.0</ele><time>2026-04-28T16:33:32.689Z</time></trkpt><trkpt lat="43.8056132" lon="10.402136"><ele>7.999999999999999</ele><time>2026-04-28T16:33:40.689Z</time></trkpt><trkpt lat="43.8056775" lon="10.4021548"><ele>8.0</ele><time>2026-04-28T16:34:05.691Z</time></trkpt><trkpt lat="43.8057198" lon="10.4022305"><ele>8.0</ele><time>2026-04-28T16:34:13.688Z</time></trkpt><trkpt lat="43.8057954" lon="10.40222"><ele>8.0</ele><time>2026-04-28T16:34:19.689Z</time></trkpt><trkpt lat="43.8058593" lon="10.4022045"><ele>7.999999999999999</ele><time>2026-04-28T16:34:27.692Z</time></trkpt><trkpt lat="43.8057629" lon="10.4021282"><ele>8.0</ele><time>2026-04-28T16:59:24.692Z</time></trkpt><trkpt lat="43.8056946" lon="10.4021506"><ele>8.0</ele><time>2026-04-28T17:00:01.689Z</time></trkpt><trkpt lat="43.8056399" lon="10.4020904"><ele>7.999999999999999</ele><time>2026-04-28T17:00:25.692Z</time></trkpt><trkpt lat="43.8055845" lon="10.4021368"><ele>8.0</ele><time>2026-04-28T17:01:21.691Z</time></trkpt><trkpt lat="43.8055478" lon="10.4022127"><ele>8.0</ele><time>2026-04-28T17:01:43.69Z</time></trkpt><trkpt lat="43.8054823" lon="10.4022517"><ele>8.0</ele><time>2026-04-28T17:01:47.689Z</time></trkpt><trkpt lat="43.805422" lon="10.4022827"><ele>7.999999999999999</ele><time>2026-04-28T17:01:58.69Z</time></trkpt><trkpt lat="43.8053538" lon="10.4022674"><ele>8.0</ele><time>2026-04-28T17:02:06.689Z</time></trkpt><trkpt lat="43.8053174" lon="10.4021933"><ele>8.0</ele><time>2026-04-28T17:02:15.688Z</time></trkpt><trkpt lat="43.8052759" lon="10.4020901"><ele>7.999999999999999</ele><time>2026-04-28T17:02:41.689Z</time></trkpt><trkpt lat="43.8052099" lon="10.4020556"><ele>8.0</ele><time>2026-04-28T17:02:50.692Z</time></trkpt><trkpt lat="43.8051464" lon="10.4020833"><ele>8.0</ele><time>2026-04-28T17:02:56.692Z</time></trkpt><trkpt lat="43.8050753" lon="10.4020897"><ele>8.0</ele><time>2026-04-28T17:03:05.69Z</time></trkpt><trkpt lat="43.8050095" lon="10.4020958"><ele>7.999999999999999</ele><time>2026-04-28T17:03:12.69Z</time></trkpt><trkpt lat="43.8050551" lon="10.4022166"><ele>8.0</ele><time>2026-04-28T17:03:40.689Z</time></trkpt><trkpt lat="43.8050999" lon="10.4022876"><ele>8.0</ele><time>2026-04-28T17:03:50.69Z</time></trkpt><trkpt lat="43.8051502" lon="10.4023502"><ele>7.999999999999999</ele><time>2026-04-28T17:03:59.69Z</time></trkpt><trkpt lat="43.8051991" lon="10.4024062"><ele>8.0</ele><time>2026-04-28T17:04:07.69Z</time></trkpt><trkpt lat="43.8052374" lon="10.4024791"><ele>8.0</ele><time>2026-04-28T17:04:17.689Z</time></trkpt><trkpt lat="43.8052834" lon="10.4025494"><ele>8.0</ele><time>2026-04-28T17:04:26.69Z</time></trkpt><trkpt lat="43.8053272" lon="10.4026141"><ele>7.999999999999999</ele><time>2026-04-28T17:04:34.688Z</time></trkpt><trkpt lat="43.8053724" lon="10.4026863"><ele>8.0</ele><time>2026-04-28T17:04:43.689Z</time></trkpt><trkpt lat="43.8053947" lon="10.4027724"><ele>8.0</ele><time>2026-04-28T17:04:51.688Z</time></trkpt><trkpt lat="43.8054368" lon="10.4028444"><ele>7.999999999999999</ele><time>2026-04-28T17:05:26.691Z</time></trkpt><trkpt lat="43.8054779" lon="10.402917"><ele>8.0</ele><time>2026-04-28T17:05:34.691Z</time></trkpt><trkpt lat="43.8055222" lon="10.4029916"><ele>8.0</ele><time>2026-04-28T17:05:44.692Z</time></trkpt><trkpt lat="43.8055545" lon="10.4030688"><ele>8.285714285714285</ele><time>2026-04-28T17:05:52.691Z</time></trkpt><trkpt lat="43.8056014" lon="10.4031378"><ele>8.571428571428571</ele><time>2026-04-28T17:06:01.69Z</time></trkpt><trkpt lat="43.8056487" lon="10.4032024"><ele>8.857142857142858</ele><time>2026-04-28T17:06:10.691Z</time></trkpt><trkpt lat="43.8056869" lon="10.4032802"><ele>9.142857142857142</ele><time>2026-04-28T17:06:18.69Z</time></trkpt><trkpt lat="43.8057249" lon="10.4033498"><ele>9.428571428571429</ele><time>2026-04-28T17:06:30.691Z</time></trkpt><trkpt lat="43.8057711" lon="10.4034124"><ele>9.714285714285714</ele><time>2026-04-28T17:06:38.696Z</time></trkpt><trkpt lat="43.805799" lon="10.4035012"><ele>10.0</ele><time>2026-04-28T17:06:45.692Z</time></trkpt><trkpt lat="43.8058182" lon="10.4035856"><ele>10.0</ele><time>2026-04-28T17:06:57.691Z</time></trkpt><trkpt lat="43.805872" lon="10.4036317"><ele>10.0</ele><time>2026-04-28T17:07:18.691Z</time></trkpt><trkpt lat="43.8059186" lon="10.4036994"><ele>10.0</ele><time>2026-04-28T17:07:25.692Z</time></trkpt><trkpt lat="43.8059651" lon="10.4037708"><ele>10.0</ele><time>2026-04-28T17:07:34.692Z</time></trkpt><trkpt lat="43.8059987" lon="10.4038521"><ele>10.0</ele><time>2026-04-28T17:07:41.691Z</time></trkpt><trkpt lat="43.8060395" lon="10.4039294"><ele>10.0</ele><time>2026-04-28T17:07:50.691Z</time></trkpt><trkpt lat="43.8060858" lon="10.4039908"><ele>10.0</ele><time>2026-04-28T17:07:58.69Z</time></trkpt><trkpt lat="43.8061363" lon="10.4040763"><ele>9.857142857142858</ele><time>2026-04-28T17:08:29.691Z</time></trkpt><trkpt lat="43.8061809" lon="10.4041443"><ele>9.714285714285715</ele><time>2026-04-28T17:08:39.688Z</time></trkpt><trkpt lat="43.8062261" lon="10.4042131"><ele>9.571428571428573</ele><time>2026-04-28T17:08:48.689Z</time></trkpt><trkpt lat="43.8062724" lon="10.4042752"><ele>9.428571428571429</ele><time>2026-04-28T17:08:57.691Z</time></trkpt><trkpt lat="43.8063009" lon="10.4043579"><ele>9.285714285714286</ele><time>2026-04-28T17:09:09.687Z</time></trkpt><trkpt lat="43.8063257" lon="10.4044468"><ele>9.142857142857144</ele><time>2026-04-28T17:09:18.694Z</time></trkpt><trkpt lat="43.8063696" lon="10.4045107"><ele>9.0</ele><time>2026-04-28T17:09:26.69Z</time></trkpt><trkpt lat="43.8064101" lon="10.4045809"><ele>9.000000000000002</ele><time>2026-04-28T17:09:36.688Z</time></trkpt><trkpt lat="43.8064699" lon="10.4046245"><ele>9.0</ele><time>2026-04-28T17:09:48.689Z</time></trkpt><trkpt lat="43.8065167" lon="10.4046907"><ele>9.0</ele><time>2026-04-28T17:10:01.69Z</time></trkpt><trkpt lat="43.8065352" lon="10.4047811"><ele>9.0</ele><time>2026-04-28T17:10:15.69Z</time></trkpt><trkpt lat="43.8065787" lon="10.4048495"><ele>9.0</ele><time>2026-04-28T17:10:25.689Z</time></trkpt><trkpt lat="43.8066145" lon="10.4049268"><ele>9.000000000000002</ele><time>2026-04-28T17:10:37.688Z</time></trkpt><trkpt lat="43.8066465" lon="10.4050027"><ele>9.0</ele><time>2026-04-28T17:10:47.689Z</time></trkpt><trkpt lat="43.8066953" lon="10.4050628"><ele>9.142857142857144</ele><time>2026-04-28T17:10:58.691Z</time></trkpt><trkpt lat="43.8067369" lon="10.4051315"><ele>9.285714285714286</ele><time>2026-04-28T17:11:09.689Z</time></trkpt><trkpt lat="43.8067761" lon="10.4052072"><ele>9.428571428571429</ele><time>2026-04-28T17:11:21.689Z</time></trkpt><trkpt lat="43.8068328" lon="10.4052608"><ele>9.571428571428573</ele><time>2026-04-28T17:11:31.687Z</time></trkpt><trkpt lat="43.8068511" lon="10.4053468"><ele>9.714285714285715</ele><time>2026-04-28T17:11:41.691Z</time></trkpt><trkpt lat="43.8068895" lon="10.405422"><ele>9.857142857142858</ele><time>2026-04-28T17:11:49.692Z</time></trkpt><trkpt lat="43.8069317" lon="10.405491"><ele>10.0</ele><time>2026-04-28T17:11:58.69Z</time></trkpt><trkpt lat="43.8069766" lon="10.4055613"><ele>9.571428571428571</ele><time>2026-04-28T17:12:07.688Z</time></trkpt><trkpt lat="43.8070448" lon="10.4056768"><ele>9.142857142857142</ele><time>2026-04-28T17:12:28.69Z</time></trkpt><trkpt lat="43.8070803" lon="10.4057544"><ele>8.714285714285715</ele><time>2026-04-28T17:12:37.688Z</time></trkpt><trkpt lat="43.807125" lon="10.4058214"><ele>8.285714285714285</ele><time>2026-04-28T17:12:51.689Z</time></trkpt><trkpt lat="43.807159" lon="10.4059012"><ele>7.857142857142858</ele><time>2026-04-28T17:13:09.691Z</time></trkpt><trkpt lat="43.8072086" lon="10.4059645"><ele>7.428571428571429</ele><time>2026-04-28T17:13:18.687Z</time></trkpt><trkpt lat="43.8072571" lon="10.4060314"><ele>7.0</ele><time>2026-04-28T17:13:29.691Z</time></trkpt><trkpt lat="43.8072997" lon="10.4060999"><ele>7.000000000000001</ele><time>2026-04-28T17:13:39.687Z</time></trkpt><trkpt lat="43.8073467" lon="10.4061687"><ele>7.0</ele><time>2026-04-28T17:13:49.692Z</time></trkpt><trkpt lat="43.8073908" lon="10.4062316"><ele>7.0</ele><time>2026-04-28T17:13:58.691Z</time></trkpt><trkpt lat="43.8074358" lon="10.4062954"><ele>7.0</ele><time>2026-04-28T17:14:07.691Z</time></trkpt><trkpt lat="43.8074714" lon="10.4063747"><ele>7.000000000000001</ele><time>2026-04-28T17:14:17.689Z</time></trkpt><trkpt lat="43.8075548" lon="10.4065095"><ele>7.0</ele><time>2026-04-28T17:15:03.687Z</time></trkpt><trkpt lat="43.8075947" lon="10.4065776"><ele>7.142857142857142</ele><time>2026-04-28T17:15:15.687Z</time></trkpt><trkpt lat="43.8076512" lon="10.4066266"><ele>7.285714285714286</ele><time>2026-04-28T17:15:26.688Z</time></trkpt><trkpt lat="43.8077044" lon="10.4066746"><ele>7.428571428571429</ele><time>2026-04-28T17:15:43.689Z</time></trkpt><trkpt lat="43.8077478" lon="10.4067394"><ele>7.571428571428571</ele><time>2026-04-28T17:15:53.689Z</time></trkpt><trkpt lat="43.8077905" lon="10.4068077"><ele>7.7142857142857135</ele><time>2026-04-28T17:16:05.69Z</time></trkpt><trkpt lat="43.8078379" lon="10.4068663"><ele>7.857142857142857</ele><time>2026-04-28T17:16:19.688Z</time></trkpt><trkpt lat="43.8078899" lon="10.4069192"><ele>8.0</ele><time>2026-04-28T17:16:28.691Z</time></trkpt><trkpt lat="43.8079282" lon="10.4069951"><ele>8.0</ele><time>2026-04-28T17:16:40.692Z</time></trkpt><trkpt lat="43.8079772" lon="10.4070544"><ele>7.999999999999999</ele><time>2026-04-28T17:16:55.688Z</time></trkpt><trkpt lat="43.808034" lon="10.407109"><ele>8.0</ele><time>2026-04-28T17:17:05.688Z</time></trkpt><trkpt lat="43.8080805" lon="10.4071717"><ele>8.0</ele><time>2026-04-28T17:17:17.688Z</time></trkpt><trkpt lat="43.8081311" lon="10.4072314"><ele>7.999999999999999</ele><time>2026-04-28T17:17:32.69Z</time></trkpt><trkpt lat="43.8081819" lon="10.4072843"><ele>8.0</ele><time>2026-04-28T17:17:45.69Z</time></trkpt><trkpt lat="43.8082368" lon="10.4073413"><ele>8.0</ele><time>2026-04-28T17:17:57.692Z</time></trkpt><trkpt lat="43.808291" lon="10.4074009"><ele>8.0</ele><time>2026-04-28T17:18:09.688Z</time></trkpt><trkpt lat="43.8083455" lon="10.4074563"><ele>7.999999999999999</ele><time>2026-04-28T17:18:22.692Z</time></trkpt><trkpt lat="43.8083946" lon="10.407516"><ele>8.0</ele><time>2026-04-28T17:18:33.689Z</time></trkpt><trkpt lat="43.8084519" lon="10.4075582"><ele>8.0</ele><time>2026-04-28T17:18:44.692Z</time></trkpt><trkpt lat="43.8085097" lon="10.4076135"><ele>7.999999999999999</ele><time>2026-04-28T17:18:57.691Z</time></trkpt><trkpt lat="43.8085632" lon="10.4076719"><ele>8.0</ele><time>2026-04-28T17:19:08.689Z</time></trkpt><trkpt lat="43.808617" lon="10.4077284"><ele>8.0</ele><time>2026-04-28T17:19:19.688Z</time></trkpt><trkpt lat="43.8086718" lon="10.407777"><ele>8.142857142857142</ele><time>2026-04-28T17:19:31.688Z</time></trkpt><trkpt lat="43.8087312" lon="10.4078238"><ele>8.285714285714285</ele><time>2026-04-28T17:19:50.689Z</time></trkpt><trkpt lat="43.8087911" lon="10.407873"><ele>8.428571428571429</ele><time>2026-04-28T17:20:00.692Z</time></trkpt><trkpt lat="43.8088487" lon="10.4079242"><ele>8.571428571428571</ele><time>2026-04-28T17:20:11.688Z</time></trkpt><trkpt lat="43.8089066" lon="10.4079697"><ele>8.714285714285715</ele><time>2026-04-28T17:20:24.695Z</time></trkpt><trkpt lat="43.8089796" lon="10.4080353"><ele>8.857142857142858</ele><time>2026-04-28T17:20:56.691Z</time></trkpt><trkpt lat="43.8090422" lon="10.4080657"><ele>9.0</ele><time>2026-04-28T17:21:05.692Z</time></trkpt><trkpt lat="43.8091" lon="10.4080118"><ele>9.000000000000002</ele><time>2026-04-28T17:21:22.691Z</time></trkpt><trkpt lat="43.8091602" lon="10.4080979"><ele>9.0</ele><time>2026-04-28T17:21:42.687Z</time></trkpt><trkpt lat="43.809189" lon="10.40818"><ele>9.0</ele><time>2026-04-28T17:21:53.689Z</time></trkpt><trkpt lat="43.8092431" lon="10.4082254"><ele>9.0</ele><time>2026-04-28T17:22:08.692Z</time></trkpt><trkpt lat="43.809305" lon="10.4082644"><ele>9.0</ele><time>2026-04-28T17:22:32.692Z</time></trkpt><trkpt lat="43.8093634" lon="10.4083064"><ele>9.000000000000002</ele><time>2026-04-28T17:22:48.688Z</time></trkpt><trkpt lat="43.8094183" lon="10.4083562"><ele>9.0</ele><time>2026-04-28T17:23:02.692Z</time></trkpt><trkpt lat="43.8094904" lon="10.4083908"><ele>9.000000000000002</ele><time>2026-04-28T17:23:19.689Z</time></trkpt><trkpt lat="43.80955" lon="10.4084265"><ele>9.0</ele><time>2026-04-28T17:23:29.692Z</time></trkpt><trkpt lat="43.8096152" lon="10.4084675"><ele>9.0</ele><time>2026-04-28T17:23:41.692Z</time></trkpt><trkpt lat="43.8096773" lon="10.4084997"><ele>9.0</ele><time>2026-04-28T17:23:52.69Z</time></trkpt><trkpt lat="43.8097332" lon="10.4085506"><ele>9.0</ele><time>2026-04-28T17:24:03.691Z</time></trkpt><trkpt lat="43.8097869" lon="10.4085985"><ele>9.000000000000002</ele><time>2026-04-28T17:24:13.692Z</time></trkpt><trkpt lat="43.8098485" lon="10.4086305"><ele>9.0</ele><time>2026-04-28T17:24:23.691Z</time></trkpt><trkpt lat="43.8099075" lon="10.4086647"><ele>9.0</ele><time>2026-04-28T17:24:33.689Z</time></trkpt><trkpt lat="43.8099664" lon="10.4087171"><ele>9.0</ele><time>2026-04-28T17:24:45.691Z</time></trkpt><trkpt lat="43.8100153" lon="10.4087728"><ele>9.0</ele><time>2026-04-28T17:24:53.69Z</time></trkpt><trkpt lat="43.8100747" lon="10.408804"><ele>9.0</ele><time>2026-04-28T17:25:03.692Z</time></trkpt><trkpt lat="43.8101843" lon="10.4088807"><ele>9.0</ele><time>2026-04-28T17:25:39.691Z</time></trkpt><trkpt lat="43.8102477" lon="10.4089091"><ele>9.0</ele><time>2026-04-28T17:25:51.691Z</time></trkpt><trkpt lat="43.8103053" lon="10.4089516"><ele>8.714285714285715</ele><time>2026-04-28T17:26:02.692Z</time></trkpt><trkpt lat="43.8103612" lon="10.4089971"><ele>8.428571428571429</ele><time>2026-04-28T17:26:12.69Z</time></trkpt><trkpt lat="43.8104286" lon="10.4090662"><ele>8.142857142857142</ele><time>2026-04-28T17:26:30.692Z</time></trkpt><trkpt lat="43.8104911" lon="10.4090875"><ele>7.857142857142858</ele><time>2026-04-28T17:26:43.692Z</time></trkpt><trkpt lat="43.8105489" lon="10.4091228"><ele>7.571428571428571</ele><time>2026-04-28T17:26:54.694Z</time></trkpt><trkpt lat="43.8106265" lon="10.4091858"><ele>7.285714285714286</ele><time>2026-04-28T17:27:18.689Z</time></trkpt><trkpt lat="43.8106863" lon="10.4092334"><ele>7.0</ele><time>2026-04-28T17:27:27.689Z</time></trkpt><trkpt lat="43.8107534" lon="10.4092588"><ele>7.0</ele><time>2026-04-28T17:27:37.692Z</time></trkpt><trkpt lat="43.8108141" lon="10.409297"><ele>7.0</ele><time>2026-04-28T17:27:46.692Z</time></trkpt><trkpt lat="43.8108695" lon="10.4093453"><ele>7.0</ele><time>2026-04-28T17:27:54.69Z</time></trkpt><trkpt lat="43.8109271" lon="10.4093851"><ele>7.0</ele><time>2026-04-28T17:28:03.691Z</time></trkpt><trkpt lat="43.8109869" lon="10.4094298"><ele>7.0</ele><time>2026-04-28T17:28:12.691Z</time></trkpt><trkpt lat="43.8110516" lon="10.4094576"><ele>7.0</ele><time>2026-04-28T17:28:20.694Z</time></trkpt><trkpt lat="43.8111078" lon="10.4094985"><ele>7.0</ele><time>2026-04-28T17:28:27.69Z</time></trkpt><trkpt lat="43.8111636" lon="10.4095522"><ele>7.0</ele><time>2026-04-28T17:28:36.687Z</time></trkpt><trkpt lat="43.8112254" lon="10.409587"><ele>7.0</ele><time>2026-04-28T17:28:44.692Z</time></trkpt><trkpt lat="43.8112846" lon="10.4096329"><ele>7.0</ele><time>2026-04-28T17:28:52.689Z</time></trkpt><trkpt lat="43.8113445" lon="10.4096599"><ele>7.0</ele><time>2026-04-28T17:28:59.691Z</time></trkpt><trkpt lat="43.8114027" lon="10.4096986"><ele>7.0</ele><time>2026-04-28T17:29:07.695Z</time></trkpt><trkpt lat="43.8114573" lon="10.4097447"><ele>7.0</ele><time>2026-04-28T17:29:15.691Z</time></trkpt><trkpt lat="43.8115075" lon="10.4098015"><ele>7.0</ele><time>2026-04-28T17:29:23.689Z</time></trkpt><trkpt lat="43.8115732" lon="10.4098413"><ele>7.142857142857142</ele><time>2026-04-28T17:29:32.699Z</time></trkpt><trkpt lat="43.8116312" lon="10.4098788"><ele>7.285714285714286</ele><time>2026-04-28T17:29:39.692Z</time></trkpt><trkpt lat="43.8116947" lon="10.4099173"><ele>7.428571428571429</ele><time>2026-04-28T17:29:47.69Z</time></trkpt><trkpt lat="43.8117588" lon="10.4099646"><ele>7.571428571428571</ele><time>2026-04-28T17:30:01.689Z</time></trkpt><trkpt lat="43.8118183" lon="10.4099982"><ele>7.7142857142857135</ele><time>2026-04-28T17:30:11.693Z</time></trkpt><trkpt lat="43.811875" lon="10.4100363"><ele>7.857142857142857</ele><time>2026-04-28T17:30:19.691Z</time></trkpt><trkpt lat="43.811933" lon="10.4100752"><ele>8.0</ele><time>2026-04-28T17:30:29.691Z</time></trkpt><trkpt lat="43.8119916" lon="10.4101325"><ele>8.0</ele><time>2026-04-28T17:31:47.689Z</time></trkpt><trkpt lat="43.8120509" lon="10.410181"><ele>7.999999999999999</ele><time>2026-04-28T17:31:55.692Z</time></trkpt><trkpt lat="43.8121135" lon="10.4102135"><ele>8.0</ele><time>2026-04-28T17:32:03.69Z</time></trkpt><trkpt lat="43.8121748" lon="10.4102418"><ele>8.0</ele><time>2026-04-28T17:32:10.692Z</time></trkpt><trkpt lat="43.8122391" lon="10.4102736"><ele>7.999999999999999</ele><time>2026-04-28T17:32:20.696Z</time></trkpt><trkpt lat="43.8123" lon="10.4103"><ele>8.0</ele><time>2026-04-28T17:32:27.694Z</time></trkpt><trkpt lat="43.8123575" lon="10.4103489"><ele>8.0</ele><time>2026-04-28T17:32:36.69Z</time></trkpt><trkpt lat="43.8124181" lon="10.410376"><ele>8.0</ele><time>2026-04-28T17:32:44.694Z</time></trkpt><trkpt lat="43.8124774" lon="10.4104284"><ele>8.0</ele><time>2026-04-28T17:32:52.695Z</time></trkpt><trkpt lat="43.8125378" lon="10.4104762"><ele>8.0</ele><time>2026-04-28T17:32:59.691Z</time></trkpt><trkpt lat="43.8126" lon="10.4105142"><ele>10.0</ele><time>2026-04-28T17:33:06.69Z</time></trkpt><trkpt lat="43.812653" lon="10.4105739"><ele>10.0</ele><time>2026-04-28T17:33:13.694Z</time></trkpt><trkpt lat="43.8126972" lon="10.4106416"><ele>8.0</ele><time>2026-04-28T17:33:19.694Z</time></trkpt><trkpt lat="43.8127457" lon="10.4107034"><ele>8.0</ele><time>2026-04-28T17:33:27.691Z</time></trkpt></trkseg></trk></gpx>